createdAt,value
2022-12-03T00:04:55.921Z,7.87
2022-12-03T00:09:57.544Z,7.39
2022-12-03T00:14:59.025Z,8.34
2022-12-03T00:20:00.506Z,7.16
2022-12-03T00:25:01.965Z,7.40
2022-12-03T00:30:04.203Z,7.10
2022-12-03T00:35:05.973Z,7.46
2022-12-03T00:40:08.002Z,7.34
2022-12-03T00:45:09.780Z,7.58
2022-12-03T00:50:11.493Z,7.80
2022-12-03T00:55:12.943Z,7.81
2022-12-03T01:00:14.629Z,7.88
2022-12-03T01:05:16.161Z,7.41
2022-12-03T01:10:17.765Z,8.45
2022-12-03T01:15:19.246Z,8.25
2022-12-03T01:20:20.802Z,8.67
2022-12-03T01:25:22.346Z,8.41
2022-12-03T01:30:23.799Z,9.28
2022-12-03T01:35:25.267Z,8.79
2022-12-03T01:40:26.745Z,8.42
2022-12-03T01:45:28.217Z,7.78
2022-12-03T01:50:30.692Z,7.88
2022-12-03T01:55:32.196Z,8.22
2022-12-03T02:00:33.773Z,9.17
2022-12-03T02:05:35.259Z,9.42
2022-12-03T02:10:36.948Z,8.41
2022-12-03T02:15:38.876Z,8.54
2022-12-03T02:20:52.186Z,9.19
2022-12-03T02:25:53.645Z,8.19
2022-12-03T02:30:55.103Z,8.69
2022-12-03T02:36:01.967Z,9.24
2022-12-03T02:41:07.757Z,8.55
2022-12-03T02:46:09.212Z,8.57
2022-12-03T02:51:10.740Z,8.54
2022-12-03T02:56:13.733Z,8.20
2022-12-03T03:01:15.524Z,8.15
2022-12-03T03:06:17.340Z,8.21
2022-12-03T03:11:18.813Z,8.08
2022-12-03T03:16:20.307Z,7.59
2022-12-03T03:21:21.847Z,7.94
2022-12-03T03:26:23.307Z,8.25
2022-12-03T03:31:24.838Z,7.01
2022-12-03T03:36:26.364Z,7.27
2022-12-03T03:41:27.919Z,8.21
2022-12-03T03:46:29.710Z,7.37
2022-12-03T03:51:31.281Z,7.65
2022-12-03T03:56:32.802Z,7.42
2022-12-03T04:01:34.368Z,7.92
2022-12-03T04:06:35.855Z,7.28
2022-12-03T04:11:55.599Z,7.49
2022-12-03T04:16:57.100Z,7.16
2022-12-03T04:22:17.193Z,7.13
2022-12-03T04:27:36.956Z,6.67
2022-12-03T04:32:57.108Z,7.16
2022-12-03T04:37:58.615Z,7.16
2022-12-03T04:43:00.097Z,6.76
2022-12-03T04:48:01.571Z,6.50
2022-12-03T04:53:03.024Z,6.71
2022-12-03T04:58:04.544Z,7.06
2022-12-03T05:03:06.082Z,6.97
2022-12-03T05:08:08.227Z,7.34
2022-12-03T05:13:09.759Z,7.53
2022-12-03T05:18:11.211Z,7.13
2022-12-03T05:23:13.170Z,7.44
2022-12-03T05:28:14.649Z,7.81
2022-12-03T05:33:16.387Z,7.85
2022-12-03T05:38:17.837Z,7.02
2022-12-03T05:43:19.330Z,6.89
2022-12-03T05:48:20.959Z,7.22
2022-12-03T05:53:22.425Z,7.06
2022-12-03T05:58:23.883Z,7.92
2022-12-03T06:03:25.432Z,8.37
2022-12-03T06:08:27.003Z,7.77
2022-12-03T06:13:28.478Z,8.53
2022-12-03T06:18:29.931Z,7.15
2022-12-03T06:23:31.394Z,7.73
2022-12-03T06:28:32.839Z,7.57
2022-12-03T06:33:34.298Z,7.51
2022-12-03T06:38:35.760Z,8.12
2022-12-03T06:43:37.248Z,7.14
2022-12-03T06:48:38.695Z,7.60
2022-12-03T06:53:40.153Z,8.52
2022-12-03T06:58:41.644Z,8.27
2022-12-03T07:03:43.127Z,8.05
2022-12-03T07:08:44.583Z,8.95
2022-12-03T07:13:46.041Z,8.44
2022-12-03T07:18:47.507Z,8.57
2022-12-03T07:23:48.959Z,8.56
2022-12-03T07:28:50.416Z,8.47
2022-12-03T07:33:51.870Z,8.57
2022-12-03T07:38:53.324Z,8.05
2022-12-03T07:43:54.782Z,7.34
2022-12-03T07:48:56.305Z,7.72
2022-12-03T07:53:57.759Z,7.62
2022-12-03T07:58:59.217Z,8.45
2022-12-03T08:04:00.703Z,7.58
2022-12-03T08:09:02.158Z,8.31
2022-12-03T08:14:13.553Z,8.12
2022-12-03T08:19:15.757Z,7.73
2022-12-03T08:24:19.713Z,8.72
2022-12-03T08:29:21.620Z,9.08
2022-12-03T08:34:24.491Z,8.75
2022-12-03T08:39:25.773Z,8.62
2022-12-03T08:44:32.462Z,8.43
2022-12-03T08:49:33.919Z,8.06
2022-12-03T08:54:35.363Z,8.07
2022-12-03T08:59:39.343Z,8.23
2022-12-03T09:04:45.287Z,8.02
2022-12-03T09:09:46.738Z,8.24
2022-12-03T09:14:48.203Z,9.03
2022-12-03T09:19:49.682Z,8.93
2022-12-03T09:24:51.327Z,8.65
2022-12-03T09:29:52.875Z,8.11
2022-12-03T09:34:54.570Z,8.33
2022-12-03T09:39:56.319Z,8.16
2022-12-03T09:44:57.762Z,8.00
2022-12-03T09:49:59.248Z,8.20
2022-12-03T09:55:03.379Z,8.41
2022-12-03T10:00:18.840Z,8.06
2022-12-03T10:05:20.419Z,7.83
2022-12-03T10:10:22.891Z,7.43
2022-12-03T10:15:24.357Z,7.24
2022-12-03T10:20:25.888Z,8.25
2022-12-03T10:25:27.352Z,8.16
2022-12-03T10:30:29.081Z,7.57
2022-12-03T10:35:38.293Z,7.27
2022-12-03T10:40:39.761Z,6.76
2022-12-03T10:45:42.551Z,6.79
2022-12-03T10:50:56.669Z,6.92
2022-12-03T10:55:59.667Z,7.06
2022-12-03T11:01:03.320Z,7.46
2022-12-03T11:06:04.979Z,7.54
2022-12-03T11:11:07.700Z,7.97
2022-12-03T11:16:09.253Z,7.80
2022-12-03T11:21:13.645Z,7.95
2022-12-03T11:26:19.206Z,8.12
2022-12-03T11:31:41.524Z,8.37
2022-12-03T11:37:11.077Z,8.95
2022-12-03T11:42:27.391Z,8.91
2022-12-03T11:47:29.732Z,8.34
2022-12-03T11:52:33.118Z,8.86
2022-12-03T11:57:37.958Z,8.86
2022-12-03T12:02:39.487Z,8.32
2022-12-03T12:07:56.291Z,8.59
2022-12-03T12:12:57.792Z,8.76
2022-12-03T12:18:37.245Z,9.11
2022-12-03T12:23:38.728Z,9.01
2022-12-03T12:28:40.178Z,8.51
2022-12-03T12:33:41.630Z,9.00
2022-12-03T12:38:43.074Z,9.06
2022-12-03T12:43:44.533Z,9.31
2022-12-03T12:48:45.984Z,9.27
2022-12-03T12:53:47.821Z,9.10
2022-12-03T12:58:49.312Z,9.29
2022-12-03T13:03:51.327Z,7.78
2022-12-03T13:08:52.776Z,8.89
2022-12-03T13:13:54.232Z,9.09
2022-12-03T13:18:56.557Z,9.04
2022-12-03T13:23:58.028Z,8.92
2022-12-03T13:28:59.525Z,9.08
2022-12-03T13:34:00.979Z,9.05
2022-12-03T13:39:09.731Z,9.27
2022-12-03T13:44:16.575Z,9.31
2022-12-03T13:49:22.948Z,8.88
2022-12-03T13:54:26.284Z,8.63
2022-12-03T13:59:27.619Z,8.63
2022-12-03T14:04:29.105Z,8.91
2022-12-03T14:09:30.563Z,8.83
2022-12-03T14:14:32.036Z,9.14
2022-12-03T14:19:33.558Z,8.41
2022-12-03T14:24:35.024Z,8.84
2022-12-03T14:29:36.500Z,8.68
2022-12-03T14:34:37.951Z,8.83
2022-12-03T14:39:39.800Z,9.20
2022-12-03T14:44:48.020Z,9.13
2022-12-03T14:49:49.826Z,8.24
2022-12-03T14:54:51.277Z,8.63
2022-12-03T14:59:53.141Z,8.12
2022-12-03T15:04:54.803Z,8.00
2022-12-03T15:09:56.731Z,8.28
2022-12-03T15:14:58.424Z,8.25
2022-12-03T15:20:00.092Z,7.29
2022-12-03T15:25:03.340Z,7.69
2022-12-03T15:30:05.681Z,7.95
2022-12-03T15:35:07.464Z,7.25
2022-12-03T15:40:09.211Z,7.92
2022-12-03T15:45:15.000Z,8.25
2022-12-03T15:50:17.550Z,8.61
2022-12-03T15:55:19.022Z,8.04
2022-12-03T16:00:20.835Z,8.54
2022-12-03T16:05:22.307Z,7.55
2022-12-03T16:10:23.778Z,8.55
2022-12-03T16:15:27.152Z,8.64
2022-12-03T16:20:28.942Z,8.17
2022-12-03T16:25:30.401Z,8.14
2022-12-03T16:30:31.886Z,7.53
2022-12-03T16:35:33.339Z,7.55
2022-12-03T16:40:34.806Z,7.43
2022-12-03T16:45:46.136Z,8.13
2022-12-03T16:50:47.604Z,8.15
2022-12-03T16:55:49.068Z,8.25
2022-12-03T17:00:50.595Z,7.88
2022-12-03T17:05:52.082Z,8.26
2022-12-03T17:10:53.665Z,8.44
2022-12-03T17:15:55.218Z,8.46
2022-12-03T17:20:56.702Z,8.41
2022-12-03T17:25:58.174Z,8.83
2022-12-03T17:30:59.692Z,8.71
2022-12-03T17:36:01.258Z,8.72
2022-12-03T17:41:02.750Z,8.59
2022-12-03T17:46:05.137Z,8.51
2022-12-03T17:51:06.656Z,8.57
2022-12-03T17:56:08.116Z,9.04
2022-12-03T18:01:10.443Z,8.71
2022-12-03T18:06:11.931Z,8.38
2022-12-03T18:11:13.428Z,8.68
2022-12-03T18:16:15.350Z,8.73
2022-12-03T18:21:16.912Z,9.09
2022-12-03T18:26:18.443Z,8.81
2022-12-03T18:31:20.732Z,8.89
2022-12-03T18:36:23.691Z,9.18
2022-12-03T18:41:25.170Z,9.49
2022-12-03T18:46:51.659Z,9.23
2022-12-03T18:51:48.549Z,9.24
2022-12-03T18:56:50.444Z,9.36
2022-12-03T19:01:51.939Z,9.11
2022-12-03T19:06:53.431Z,9.46
2022-12-03T19:11:54.902Z,9.11
2022-12-03T19:16:56.384Z,9.41
2022-12-03T19:21:57.904Z,8.98
2022-12-03T19:26:59.365Z,9.36
2022-12-03T19:32:00.963Z,9.36
2022-12-03T19:37:02.570Z,9.29
2022-12-03T19:42:04.234Z,8.99
2022-12-03T19:47:05.793Z,9.13
2022-12-03T19:52:07.322Z,9.24
2022-12-03T19:57:08.885Z,8.12
2022-12-03T20:02:10.911Z,8.36
2022-12-03T20:07:12.451Z,8.61
2022-12-03T20:12:13.917Z,8.77
2022-12-03T20:17:15.362Z,8.74
2022-12-03T20:22:16.822Z,8.54
2022-12-03T20:27:22.647Z,8.88
2022-12-03T20:32:24.554Z,8.96
2022-12-03T20:37:26.041Z,8.72
2022-12-03T20:42:27.529Z,8.99
2022-12-03T20:47:28.993Z,8.98
2022-12-03T20:52:30.496Z,9.08
2022-12-03T20:57:31.990Z,9.03
2022-12-03T21:02:33.504Z,8.91
2022-12-03T21:07:35.067Z,8.72
2022-12-03T21:12:36.567Z,8.57
2022-12-03T21:17:38.243Z,8.45
2022-12-03T21:22:39.751Z,8.68
2022-12-03T21:27:41.204Z,8.76
2022-12-03T21:32:42.661Z,8.86
2022-12-03T21:37:44.151Z,8.74
2022-12-03T21:42:45.599Z,8.85
2022-12-03T21:47:48.187Z,8.70
2022-12-03T21:52:51.207Z,8.84
2022-12-03T21:57:52.654Z,8.86
2022-12-03T22:02:54.270Z,8.85
2022-12-03T22:07:55.845Z,8.49
2022-12-03T22:12:57.353Z,8.61
2022-12-03T22:17:58.918Z,8.32
2022-12-03T22:23:00.399Z,8.39
2022-12-03T22:28:01.893Z,7.88
2022-12-03T22:33:03.436Z,8.45
2022-12-03T22:38:04.916Z,8.64
2022-12-03T22:43:06.376Z,8.90
2022-12-03T22:48:07.848Z,8.92
2022-12-03T22:53:09.336Z,8.98
2022-12-03T22:58:11.122Z,8.76
2022-12-03T23:03:12.746Z,8.85
2022-12-03T23:08:15.904Z,8.84
2022-12-03T23:13:17.691Z,8.63
2022-12-03T23:18:19.287Z,8.64
2022-12-03T23:23:21.183Z,7.73
2022-12-03T23:28:22.650Z,8.50
2022-12-03T23:33:24.200Z,8.77
2022-12-03T23:38:25.668Z,8.16
2022-12-03T23:43:27.115Z,8.60
2022-12-03T23:48:29.002Z,8.55
2022-12-03T23:53:30.630Z,8.36
2022-12-03T23:58:32.226Z,7.76
